createdAt,value
2019-05-19T00:00:04.626Z,998.10
2019-05-19T00:01:04.605Z,998.13
2019-05-19T00:02:04.614Z,998.12
2019-05-19T00:03:04.581Z,998.12
2019-05-19T00:04:04.573Z,998.10
2019-05-19T00:05:04.569Z,998.04
2019-05-19T00:06:04.559Z,998.04
2019-05-19T00:07:04.555Z,998.04
2019-05-19T00:08:04.529Z,998.04
2019-05-19T00:09:04.516Z,997.98
2019-05-19T00:10:04.540Z,998.00
2019-05-19T00:11:04.494Z,998.01
2019-05-19T00:12:04.496Z,997.98
2019-05-19T00:13:04.471Z,997.96
2019-05-19T00:14:04.460Z,997.96
2019-05-19T00:15:04.452Z,997.98
2019-05-19T00:16:04.436Z,997.93
2019-05-19T00:17:04.441Z,997.90
2019-05-19T00:18:04.416Z,997.90
2019-05-19T00:19:04.402Z,997.93
2019-05-19T00:20:04.391Z,997.93
2019-05-19T00:21:04.385Z,997.92
2019-05-19T00:22:04.387Z,997.91
2019-05-19T00:23:04.362Z,997.94
2019-05-19T00:24:04.353Z,997.92
2019-05-19T00:25:04.366Z,997.93
2019-05-19T00:26:04.328Z,997.94
2019-05-19T00:27:04.338Z,997.97
2019-05-19T00:28:04.303Z,997.94
2019-05-19T00:29:04.294Z,997.92
2019-05-19T00:30:04.281Z,997.95
2019-05-19T00:31:04.271Z,997.94
2019-05-19T00:32:04.292Z,997.90
2019-05-19T00:33:04.251Z,997.93
2019-05-19T00:34:04.238Z,997.88
2019-05-19T00:35:04.225Z,997.82
2019-05-19T00:36:04.229Z,997.82
2019-05-19T00:37:04.220Z,997.81
2019-05-19T00:38:04.204Z,997.79
2019-05-19T00:39:04.201Z,997.81
2019-05-19T00:40:04.178Z,997.79
2019-05-19T00:41:04.166Z,997.80
2019-05-19T00:42:04.170Z,997.77
2019-05-19T00:43:04.138Z,997.74
2019-05-19T00:44:04.131Z,997.78
2019-05-19T00:45:04.121Z,997.75
2019-05-19T00:46:04.110Z,997.75
2019-05-19T00:47:04.116Z,997.74
2019-05-19T00:48:04.088Z,997.74
2019-05-19T00:49:04.072Z,997.80
2019-05-19T00:50:04.101Z,997.80
2019-05-19T00:51:04.068Z,997.79
2019-05-19T00:52:04.077Z,997.79
2019-05-19T00:53:04.165Z,997.81
2019-05-19T00:54:04.017Z,997.82
2019-05-19T00:55:04.007Z,997.81
2019-05-19T00:56:04.001Z,997.82
2019-05-19T00:57:03.987Z,997.81
2019-05-19T00:58:03.997Z,997.77
2019-05-19T00:59:03.963Z,997.82
2019-05-19T01:00:04.481Z,997.80
2019-05-19T01:01:03.940Z,997.76
2019-05-19T01:02:03.937Z,997.78
2019-05-19T01:03:03.940Z,997.73
2019-05-19T01:04:03.909Z,997.80
2019-05-19T01:05:03.895Z,997.80
2019-05-19T01:06:03.886Z,997.79
2019-05-19T01:07:03.877Z,997.79
2019-05-19T01:08:03.896Z,997.80
2019-05-19T01:09:03.851Z,997.79
2019-05-19T01:10:03.846Z,997.75
2019-05-19T01:11:03.855Z,997.73
2019-05-19T01:12:03.819Z,997.66
2019-05-19T01:13:03.827Z,997.69
2019-05-19T01:14:03.798Z,997.64
2019-05-19T01:15:03.785Z,997.71
2019-05-19T01:16:03.782Z,997.67
2019-05-19T01:17:03.764Z,997.67
2019-05-19T01:18:03.770Z,997.68
2019-05-19T01:19:03.753Z,997.67
2019-05-19T01:20:03.736Z,997.74
2019-05-19T01:21:03.722Z,997.75
2019-05-19T01:22:03.715Z,997.73
2019-05-19T01:23:03.715Z,997.80
2019-05-19T01:24:03.704Z,997.82
2019-05-19T01:25:03.675Z,997.86
2019-05-19T01:26:03.701Z,997.89
2019-05-19T01:27:03.656Z,997.88
2019-05-19T01:28:03.659Z,997.87
2019-05-19T01:29:03.630Z,997.86
2019-05-19T01:30:03.631Z,997.84
2019-05-19T01:31:03.614Z,997.84
2019-05-19T01:32:03.602Z,997.81
2019-05-19T01:33:03.604Z,997.80
2019-05-19T01:34:03.576Z,997.83
2019-05-19T01:35:03.564Z,997.79
2019-05-19T01:36:03.556Z,997.79
2019-05-19T01:37:03.552Z,997.78
2019-05-19T01:38:03.549Z,997.78
2019-05-19T01:39:03.524Z,997.76
2019-05-19T01:40:03.509Z,997.81
2019-05-19T01:41:03.501Z,997.75
2019-05-19T01:42:03.494Z,997.75
2019-05-19T01:43:03.515Z,997.76
2019-05-19T01:44:03.470Z,997.77
2019-05-19T01:45:03.463Z,997.74
2019-05-19T01:46:03.443Z,997.75
2019-05-19T01:47:03.436Z,997.75
2019-05-19T01:48:03.475Z,997.74
2019-05-19T01:49:03.411Z,997.72
2019-05-19T01:50:17.060Z,997.69
2019-05-19T01:51:04.389Z,997.71
2019-05-19T01:52:03.385Z,997.69
2019-05-19T01:53:03.390Z,997.70
2019-05-19T01:54:03.368Z,997.67
2019-05-19T01:55:03.349Z,997.62
2019-05-19T01:56:03.333Z,997.69
2019-05-19T01:57:03.325Z,997.67
2019-05-19T01:58:03.334Z,997.73
2019-05-19T01:59:03.303Z,997.68
2019-05-19T02:00:03.580Z,997.71
2019-05-19T02:01:03.339Z,997.72
2019-05-19T02:02:03.276Z,997.72
2019-05-19T02:03:03.279Z,997.72
2019-05-19T02:04:03.272Z,997.70
2019-05-19T02:05:03.233Z,997.68
2019-05-19T02:06:03.230Z,997.72
2019-05-19T02:07:03.215Z,997.74
2019-05-19T02:08:03.228Z,997.73
2019-05-19T02:09:03.195Z,997.72
2019-05-19T02:10:03.208Z,997.71
2019-05-19T02:11:03.168Z,997.75
2019-05-19T02:12:03.231Z,997.66
2019-05-19T02:13:05.126Z,997.72
2019-05-19T02:14:03.139Z,997.71
2019-05-19T02:15:03.134Z,997.65
2019-05-19T02:16:03.127Z,997.64
2019-05-19T02:17:03.106Z,997.66
2019-05-19T02:18:03.118Z,997.64
2019-05-19T02:19:03.083Z,997.58
2019-05-19T02:20:03.068Z,997.61
2019-05-19T02:21:03.057Z,997.59
2019-05-19T02:22:03.056Z,997.54
2019-05-19T02:23:03.057Z,997.56
2019-05-19T02:24:03.028Z,997.53
2019-05-19T02:25:03.014Z,997.51
2019-05-19T02:26:03.002Z,997.47
2019-05-19T02:27:02.991Z,997.46
2019-05-19T02:28:03.002Z,997.49
2019-05-19T02:29:02.970Z,997.42
2019-05-19T02:30:03.138Z,997.41
2019-05-19T02:31:02.962Z,997.43
2019-05-19T02:32:02.942Z,997.45
2019-05-19T02:33:02.946Z,997.43
2019-05-19T02:34:02.916Z,997.41
2019-05-19T02:35:02.914Z,997.37
2019-05-19T02:36:02.894Z,997.33
2019-05-19T02:37:02.882Z,997.34
2019-05-19T02:38:02.903Z,997.33
2019-05-19T02:39:02.861Z,997.31
2019-05-19T02:40:02.851Z,997.31
2019-05-19T02:41:02.869Z,997.33
2019-05-19T02:42:02.826Z,997.30
2019-05-19T02:43:02.840Z,997.33
2019-05-19T02:44:02.809Z,997.33
2019-05-19T02:45:02.800Z,997.31
2019-05-19T02:46:02.805Z,997.28
2019-05-19T02:47:02.775Z,997.34
2019-05-19T02:48:02.799Z,997.34
2019-05-19T02:49:02.752Z,997.26
2019-05-19T02:50:02.741Z,997.24
2019-05-19T02:51:02.731Z,997.29
2019-05-19T02:52:02.726Z,997.23
2019-05-19T02:53:02.736Z,997.25
2019-05-19T02:54:02.701Z,997.26
2019-05-19T02:55:02.691Z,997.26
2019-05-19T02:56:02.673Z,997.30
2019-05-19T02:57:02.661Z,997.25
2019-05-19T02:58:02.668Z,997.32
2019-05-19T02:59:02.644Z,997.30
2019-05-19T03:00:02.644Z,997.36
2019-05-19T03:01:02.634Z,997.33
2019-05-19T03:02:02.608Z,997.28
2019-05-19T03:03:02.635Z,997.27
2019-05-19T03:04:02.591Z,997.24
2019-05-19T03:05:02.590Z,997.26
2019-05-19T03:06:02.570Z,997.27
2019-05-19T03:07:02.558Z,997.37
2019-05-19T03:08:02.544Z,997.46
2019-05-19T03:09:02.549Z,997.47
2019-05-19T03:10:02.525Z,997.43
2019-05-19T03:11:02.513Z,997.42
2019-05-19T03:12:02.504Z,997.37
2019-05-19T03:13:02.492Z,997.38
2019-05-19T03:14:02.491Z,997.36
2019-05-19T03:15:02.482Z,997.40
2019-05-19T03:16:02.458Z,997.38
2019-05-19T03:17:02.444Z,997.41
2019-05-19T03:18:02.446Z,997.41
2019-05-19T03:19:02.441Z,997.42
2019-05-19T03:20:02.467Z,997.43
2019-05-19T03:21:10.811Z,997.45
2019-05-19T03:22:03.396Z,997.42
2019-05-19T03:23:02.384Z,997.40
2019-05-19T03:24:02.480Z,997.40
2019-05-19T03:25:02.362Z,997.38
2019-05-19T03:26:02.349Z,997.34
2019-05-19T03:27:02.339Z,997.35
2019-05-19T03:28:02.323Z,997.39
2019-05-19T03:29:02.357Z,997.39
2019-05-19T03:30:02.301Z,997.42
2019-05-19T03:31:02.288Z,997.43
2019-05-19T03:32:02.286Z,997.40
2019-05-19T03:33:02.322Z,997.41
2019-05-19T03:34:02.314Z,997.35
2019-05-19T03:35:02.322Z,997.36
2019-05-19T03:36:02.233Z,997.40
2019-05-19T03:37:02.223Z,997.38
2019-05-19T03:38:02.218Z,997.44
2019-05-19T03:39:02.220Z,997.38
2019-05-19T03:40:02.216Z,997.37
2019-05-19T03:41:02.182Z,997.38
2019-05-19T03:42:02.174Z,997.34
2019-05-19T03:43:02.164Z,997.33
2019-05-19T03:44:02.165Z,997.28
2019-05-19T03:45:02.154Z,997.26
2019-05-19T03:46:02.131Z,997.27
2019-05-19T03:47:02.116Z,997.24
2019-05-19T03:48:02.112Z,997.25
2019-05-19T03:49:02.107Z,997.26
2019-05-19T03:50:02.081Z,997.28
2019-05-19T03:51:02.067Z,997.28
2019-05-19T03:52:02.068Z,997.32
2019-05-19T03:53:02.048Z,997.30
2019-05-19T03:54:02.053Z,997.28
2019-05-19T03:55:02.054Z,997.31
2019-05-19T03:56:02.019Z,997.30
2019-05-19T03:57:02.005Z,997.30
2019-05-19T03:58:01.997Z,997.29
2019-05-19T03:59:01.995Z,997.28
2019-05-19T04:00:01.972Z,997.30
2019-05-19T04:01:01.965Z,997.32
2019-05-19T04:02:01.948Z,997.31
2019-05-19T04:03:01.939Z,997.29
2019-05-19T04:04:01.950Z,997.30
2019-05-19T04:05:01.914Z,997.31
2019-05-19T04:06:01.905Z,997.30
2019-05-19T04:07:01.891Z,997.32
2019-05-19T04:08:01.887Z,997.36
2019-05-19T04:09:01.892Z,997.39
2019-05-19T04:10:01.875Z,997.37
2019-05-19T04:11:01.858Z,997.38
2019-05-19T04:12:01.841Z,997.40
2019-05-19T04:13:01.841Z,997.43
2019-05-19T04:14:01.836Z,997.49
2019-05-19T04:15:01.807Z,997.47
2019-05-19T04:16:01.793Z,997.49
2019-05-19T04:17:01.783Z,997.47
2019-05-19T04:18:01.777Z,997.52
2019-05-19T04:19:01.785Z,997.47
2019-05-19T04:20:01.774Z,997.51
2019-05-19T04:21:01.737Z,997.48
2019-05-19T04:22:01.744Z,997.49
2019-05-19T04:23:01.718Z,997.50
2019-05-19T04:24:01.704Z,997.51
2019-05-19T04:25:01.719Z,997.54
2019-05-19T04:26:01.694Z,997.54
2019-05-19T04:27:01.675Z,997.53
2019-05-19T04:28:02.845Z,997.49
2019-05-19T04:29:01.654Z,997.52
2019-05-19T04:30:01.664Z,997.55
2019-05-19T04:31:01.637Z,997.52
2019-05-19T04:32:01.619Z,997.50
2019-05-19T04:33:01.607Z,997.52
2019-05-19T04:34:01.610Z,997.49
2019-05-19T04:35:02.002Z,997.51
2019-05-19T04:36:01.583Z,997.47
2019-05-19T04:37:01.567Z,997.48
2019-05-19T04:38:01.555Z,997.46
2019-05-19T04:39:01.540Z,997.48
2019-05-19T04:40:01.554Z,997.49
2019-05-19T04:41:01.517Z,997.49
2019-05-19T04:42:01.506Z,997.54
2019-05-19T04:43:01.499Z,997.52
2019-05-19T04:44:01.487Z,997.52
2019-05-19T04:45:01.491Z,997.51
2019-05-19T04:46:01.465Z,997.55
2019-05-19T04:47:01.454Z,997.49
2019-05-19T04:48:01.442Z,997.47
2019-05-19T04:49:01.429Z,997.47
2019-05-19T04:50:01.439Z,997.50
2019-05-19T04:51:01.419Z,997.46
2019-05-19T04:52:06.800Z,997.54
2019-05-19T04:53:01.402Z,997.54
2019-05-19T04:54:01.373Z,997.51
2019-05-19T04:55:01.424Z,997.53
2019-05-19T04:56:01.352Z,997.52
2019-05-19T04:57:01.349Z,997.52
2019-05-19T04:58:01.333Z,997.54
2019-05-19T04:59:01.319Z,997.46
2019-05-19T05:00:01.325Z,997.45
2019-05-19T05:01:01.300Z,997.56
2019-05-19T05:02:01.289Z,997.50
2019-05-19T05:03:01.276Z,997.54
2019-05-19T05:04:01.265Z,997.59
2019-05-19T05:05:01.605Z,997.60
2019-05-19T05:06:01.247Z,997.58
2019-05-19T05:07:01.231Z,997.54
2019-05-19T05:08:01.250Z,997.53
2019-05-19T05:09:01.215Z,997.53
2019-05-19T05:10:01.216Z,997.55
2019-05-19T05:11:01.191Z,997.55
2019-05-19T05:12:01.175Z,997.55
2019-05-19T05:13:01.164Z,997.53
2019-05-19T05:14:01.281Z,997.54
2019-05-19T05:15:01.163Z,997.49
2019-05-19T05:16:01.134Z,997.51
2019-05-19T05:17:01.120Z,997.55
2019-05-19T05:18:01.284Z,997.54
2019-05-19T05:19:01.107Z,997.56
2019-05-19T05:20:01.107Z,997.55
2019-05-19T05:21:01.081Z,997.56
2019-05-19T05:22:01.065Z,997.52
2019-05-19T05:23:01.056Z,997.56
2019-05-19T05:24:01.047Z,997.56
2019-05-19T05:25:01.048Z,997.55
2019-05-19T05:26:01.025Z,997.58
2019-05-19T05:27:01.015Z,997.65
2019-05-19T05:28:01.002Z,997.57
2019-05-19T05:29:00.987Z,997.63
2019-05-19T05:30:01.055Z,997.63
2019-05-19T05:31:00.975Z,997.61
2019-05-19T05:32:00.956Z,997.64
2019-05-19T05:33:00.951Z,997.64
2019-05-19T05:34:00.934Z,997.67
2019-05-19T05:35:00.940Z,997.66
2019-05-19T05:36:00.935Z,997.62
2019-05-19T05:37:00.909Z,997.68
2019-05-19T05:38:00.896Z,997.67
2019-05-19T05:39:00.883Z,997.69
2019-05-19T05:40:00.883Z,997.69
2019-05-19T05:41:00.857Z,997.67
2019-05-19T05:42:00.928Z,997.68
2019-05-19T05:43:00.833Z,997.68
2019-05-19T05:44:00.828Z,997.68
2019-05-19T05:45:00.831Z,997.65
2019-05-19T05:46:00.807Z,997.67
2019-05-19T05:47:00.793Z,997.66
2019-05-19T05:48:00.779Z,997.67
2019-05-19T05:49:00.767Z,997.65
2019-05-19T05:50:00.776Z,997.60
2019-05-19T05:51:00.749Z,997.64
2019-05-19T05:52:00.735Z,997.61
2019-05-19T05:53:00.724Z,997.65
2019-05-19T05:54:00.713Z,997.61
2019-05-19T05:55:00.738Z,997.64
2019-05-19T05:56:00.693Z,997.64
2019-05-19T05:57:00.685Z,997.64
2019-05-19T05:58:00.675Z,997.63
2019-05-19T05:59:00.661Z,997.58
2019-05-19T06:00:00.667Z,997.59
2019-05-19T06:01:00.635Z,997.59
2019-05-19T06:02:00.634Z,997.59
2019-05-19T06:03:00.619Z,997.63
2019-05-19T06:04:00.607Z,997.54
2019-05-19T06:05:00.610Z,997.61
2019-05-19T06:06:00.580Z,997.60
2019-05-19T06:07:00.577Z,997.54
2019-05-19T06:08:00.558Z,997.55
2019-05-19T06:09:00.547Z,997.56
2019-05-19T06:10:00.553Z,997.58
2019-05-19T06:11:00.544Z,997.54
2019-05-19T06:12:00.516Z,997.59
2019-05-19T06:13:00.504Z,997.59
2019-05-19T06:14:00.497Z,997.66
2019-05-19T06:15:00.498Z,997.63
2019-05-19T06:16:00.470Z,997.64
2019-05-19T06:17:00.460Z,997.62
2019-05-19T06:18:00.448Z,997.65
2019-05-19T06:19:00.454Z,997.62
2019-05-19T06:20:00.450Z,997.63
2019-05-19T06:21:00.422Z,997.62
2019-05-19T06:22:00.410Z,997.58
2019-05-19T06:23:00.395Z,997.60
2019-05-19T06:24:00.385Z,997.64
2019-05-19T06:25:00.389Z,997.61
2019-05-19T06:26:00.361Z,997.61
2019-05-19T06:27:00.354Z,997.60
2019-05-19T06:28:00.339Z,997.64
2019-05-19T06:29:00.327Z,997.65
2019-05-19T06:30:00.339Z,997.66
2019-05-19T06:31:00.310Z,997.71
2019-05-19T06:32:00.298Z,997.66
2019-05-19T06:33:00.290Z,997.69
2019-05-19T06:34:00.282Z,997.70
2019-05-19T06:35:00.280Z,997.70
2019-05-19T06:36:00.249Z,997.70
2019-05-19T06:37:00.252Z,997.64
2019-05-19T06:38:00.228Z,997.64
2019-05-19T06:39:00.291Z,997.67
2019-05-19T06:40:00.232Z,997.67
2019-05-19T06:41:00.193Z,997.62
2019-05-19T06:42:00.246Z,997.62
2019-05-19T06:43:00.189Z,997.64
2019-05-19T06:44:03.244Z,997.64
2019-05-19T06:45:00.177Z,997.63
2019-05-19T06:46:00.141Z,997.64
2019-05-19T06:47:00.128Z,997.69
2019-05-19T06:48:00.117Z,997.65
2019-05-19T06:49:00.106Z,997.70
2019-05-19T06:50:00.164Z,997.65
2019-05-19T06:51:00.085Z,997.68
2019-05-19T06:52:00.072Z,997.69
2019-05-19T06:53:13.349Z,997.75
2019-05-19T06:54:01.051Z,997.71
2019-05-19T06:55:00.125Z,997.75
2019-05-19T06:56:00.032Z,997.73
2019-05-19T06:57:00.041Z,997.75
2019-05-19T06:58:00.009Z,997.76
2019-05-19T06:59:00.045Z,997.75
2019-05-19T07:00:00.085Z,997.71
2019-05-19T07:00:59.979Z,997.73
2019-05-19T07:01:59.970Z,997.75
2019-05-19T07:02:59.954Z,997.74
2019-05-19T07:03:59.946Z,997.71
2019-05-19T07:04:59.957Z,997.70
2019-05-19T07:05:59.918Z,997.67
2019-05-19T07:06:59.934Z,997.71
2019-05-19T07:07:59.904Z,997.69
2019-05-19T07:08:59.888Z,997.68
2019-05-19T07:09:59.876Z,997.73
2019-05-19T07:10:59.882Z,997.71
2019-05-19T07:11:59.869Z,997.67
2019-05-19T07:12:59.845Z,997.70
2019-05-19T07:14:02.917Z,997.73
2019-05-19T07:14:59.819Z,997.70
2019-05-19T07:15:59.828Z,997.75
2019-05-19T07:16:59.797Z,997.74
2019-05-19T07:17:59.801Z,997.75
2019-05-19T07:18:59.774Z,997.75
2019-05-19T07:19:59.763Z,997.74
2019-05-19T07:20:59.770Z,997.71
2019-05-19T07:21:59.743Z,997.74
2019-05-19T07:22:59.729Z,997.74
2019-05-19T07:23:59.728Z,997.69
2019-05-19T07:24:59.710Z,997.72
2019-05-19T07:25:59.726Z,997.71
2019-05-19T07:26:59.685Z,997.75
2019-05-19T07:27:59.674Z,997.75
2019-05-19T07:28:59.664Z,997.76
2019-05-19T07:29:59.652Z,997.67
2019-05-19T07:30:59.657Z,997.68
2019-05-19T07:32:00.477Z,997.67
2019-05-19T07:32:59.619Z,997.71
2019-05-19T07:33:59.608Z,997.68
2019-05-19T07:34:59.605Z,997.66
2019-05-19T07:35:59.616Z,997.67
2019-05-19T07:36:59.580Z,997.68
2019-05-19T07:37:59.606Z,997.67
2019-05-19T07:38:59.559Z,997.65
2019-05-19T07:39:59.548Z,997.65
2019-05-19T07:40:59.627Z,997.66
2019-05-19T07:41:59.530Z,997.57
2019-05-19T07:42:59.512Z,997.60
2019-05-19T07:43:59.508Z,997.56
2019-05-19T07:44:59.487Z,997.53
2019-05-19T07:45:59.500Z,997.58
2019-05-19T07:46:59.465Z,997.56
2019-05-19T07:47:59.459Z,997.58
2019-05-19T07:48:59.448Z,997.59
2019-05-19T07:49:59.437Z,997.59
2019-05-19T07:50:59.439Z,997.61
2019-05-19T07:51:59.418Z,997.63
2019-05-19T07:52:59.404Z,997.60
2019-05-19T07:53:59.389Z,997.64
2019-05-19T07:54:59.393Z,997.61
2019-05-19T07:55:59.385Z,997.60
2019-05-19T07:56:59.356Z,997.57
2019-05-19T07:57:59.344Z,997.54
2019-05-19T07:58:59.334Z,997.49
2019-05-19T07:59:59.323Z,997.45
2019-05-19T08:00:59.331Z,997.45
2019-05-19T08:01:59.399Z,997.45
2019-05-19T08:02:59.293Z,997.46
2019-05-19T08:03:59.285Z,997.49
2019-05-19T08:04:59.281Z,997.49
2019-05-19T08:05:59.283Z,997.52
2019-05-19T08:06:59.247Z,997.51
2019-05-19T08:07:59.241Z,997.52
2019-05-19T08:08:59.235Z,997.58
2019-05-19T08:09:59.222Z,997.57
2019-05-19T08:10:59.241Z,997.56
2019-05-19T08:11:59.198Z,997.57
2019-05-19T08:12:59.185Z,997.55
2019-05-19T08:13:59.173Z,997.52
2019-05-19T08:14:59.166Z,997.55
2019-05-19T08:15:59.168Z,997.56
2019-05-19T08:16:59.148Z,997.59
2019-05-19T08:17:59.136Z,997.53
2019-05-19T08:18:59.123Z,997.57
2019-05-19T08:19:59.112Z,997.60
2019-05-19T08:20:59.165Z,997.59
2019-05-19T08:21:59.089Z,997.60
2019-05-19T08:22:59.106Z,997.59
2019-05-19T08:24:00.675Z,997.59
2019-05-19T08:24:59.064Z,997.61
2019-05-19T08:25:59.065Z,997.53
2019-05-19T08:26:59.040Z,997.50
2019-05-19T08:28:07.429Z,997.47
2019-05-19T08:29:00.106Z,997.50
2019-05-19T08:29:59.005Z,997.50
2019-05-19T08:30:59.010Z,997.53
2019-05-19T08:31:58.984Z,997.49
2019-05-19T08:32:58.971Z,997.52
2019-05-19T08:33:59.066Z,997.55
2019-05-19T08:34:58.952Z,997.49
2019-05-19T08:35:58.960Z,997.49
2019-05-19T08:36:58.931Z,997.50
2019-05-19T08:37:58.922Z,997.51
2019-05-19T08:38:58.907Z,997.48
2019-05-19T08:39:58.998Z,997.48
2019-05-19T08:40:58.914Z,997.43
2019-05-19T08:41:58.872Z,997.44
2019-05-19T08:42:58.900Z,997.46
2019-05-19T08:43:58.863Z,997.41
2019-05-19T08:44:58.844Z,997.35
2019-05-19T08:45:58.852Z,997.35
2019-05-19T08:46:58.821Z,997.42
2019-05-19T08:47:58.809Z,997.43
2019-05-19T08:48:58.798Z,997.40
2019-05-19T08:49:58.789Z,997.43
2019-05-19T08:50:58.791Z,997.45
2019-05-19T08:51:58.772Z,997.45
2019-05-19T08:52:58.753Z,997.46
2019-05-19T08:53:58.752Z,997.43
2019-05-19T08:54:58.730Z,997.42
2019-05-19T08:55:58.738Z,997.46
2019-05-19T08:56:58.728Z,997.44
2019-05-19T08:57:58.703Z,997.44
2019-05-19T08:58:58.694Z,997.41
2019-05-19T08:59:58.679Z,997.39
2019-05-19T09:00:58.686Z,997.38
2019-05-19T09:01:58.657Z,997.34
2019-05-19T09:02:58.646Z,997.34
2019-05-19T09:03:59.017Z,997.34
2019-05-19T09:04:58.650Z,997.30
2019-05-19T09:05:58.635Z,997.33
2019-05-19T09:06:58.598Z,997.29
2019-05-19T09:07:58.594Z,997.35
2019-05-19T09:08:58.579Z,997.37
2019-05-19T09:09:58.568Z,997.37
2019-05-19T09:10:58.583Z,997.35
2019-05-19T09:11:58.543Z,997.35
2019-05-19T09:12:58.536Z,997.35
2019-05-19T09:13:58.523Z,997.30
2019-05-19T09:14:58.510Z,997.31
2019-05-19T09:15:58.516Z,997.33
2019-05-19T09:16:58.488Z,997.31
2019-05-19T09:17:58.482Z,997.30
2019-05-19T09:18:58.476Z,997.28
2019-05-19T09:19:58.454Z,997.30
2019-05-19T09:20:58.469Z,997.26
2019-05-19T09:21:58.445Z,997.31
2019-05-19T09:22:58.424Z,997.25
2019-05-19T09:23:58.413Z,997.31
2019-05-19T09:24:58.399Z,997.24
2019-05-19T09:25:58.410Z,997.23
2019-05-19T09:26:58.377Z,997.22
2019-05-19T09:27:58.417Z,997.18
2019-05-19T09:28:58.364Z,997.21
2019-05-19T09:29:58.347Z,997.18
2019-05-19T09:30:58.348Z,997.18
2019-05-19T09:31:58.323Z,997.19
2019-05-19T09:32:58.317Z,997.18
2019-05-19T09:33:58.358Z,997.19
2019-05-19T09:34:58.291Z,997.15
2019-05-19T09:35:58.291Z,997.16
2019-05-19T09:36:58.264Z,997.16
2019-05-19T09:37:58.285Z,997.20
2019-05-19T09:38:58.248Z,997.19
2019-05-19T09:39:58.231Z,997.22
2019-05-19T09:40:58.253Z,997.22
2019-05-19T09:41:58.209Z,997.19
2019-05-19T09:42:58.199Z,997.17
2019-05-19T09:43:58.187Z,997.14
2019-05-19T09:44:58.521Z,997.10
2019-05-19T09:45:58.169Z,997.12
2019-05-19T09:46:58.173Z,997.10
2019-05-19T09:47:58.142Z,997.11
2019-05-19T09:48:58.132Z,997.10
2019-05-19T09:49:58.125Z,997.08
2019-05-19T09:50:58.141Z,997.10
2019-05-19T09:51:58.125Z,997.07
2019-05-19T09:52:58.087Z,997.10
2019-05-19T09:53:58.077Z,997.07
2019-05-19T09:54:58.097Z,997.07
2019-05-19T09:55:58.054Z,997.09
2019-05-19T09:56:58.064Z,997.04
2019-05-19T09:57:58.035Z,997.07
2019-05-19T09:58:58.020Z,997.01
2019-05-19T09:59:58.011Z,996.97
2019-05-19T10:00:58.124Z,997.00
2019-05-19T10:01:58.117Z,996.99
2019-05-19T10:02:57.975Z,996.97
2019-05-19T10:03:57.965Z,996.95
2019-05-19T10:04:57.967Z,997.02
2019-05-19T10:05:57.958Z,996.95
2019-05-19T10:06:57.957Z,996.93
2019-05-19T10:07:57.930Z,996.89
2019-05-19T10:08:57.908Z,996.92
2019-05-19T10:09:57.920Z,996.89
2019-05-19T10:10:57.886Z,996.88
2019-05-19T10:11:57.893Z,996.87
2019-05-19T10:12:57.864Z,996.88
2019-05-19T10:13:57.859Z,996.88
2019-05-19T10:14:57.973Z,996.91
2019-05-19T10:15:57.839Z,996.83
2019-05-19T10:16:57.837Z,996.79
2019-05-19T10:17:57.817Z,996.81
2019-05-19T10:18:57.799Z,996.82
2019-05-19T10:19:57.797Z,996.75
2019-05-19T10:20:57.912Z,996.85
2019-05-19T10:21:57.781Z,996.81
2019-05-19T10:22:57.753Z,996.80
2019-05-19T10:23:57.748Z,996.82
2019-05-19T10:25:18.313Z,996.80
2019-05-19T10:25:57.726Z,996.76
2019-05-19T10:26:57.806Z,996.77
2019-05-19T10:27:57.913Z,996.79
2019-05-19T10:28:57.689Z,996.78
2019-05-19T10:29:57.683Z,996.80
2019-05-19T10:30:57.665Z,996.75
2019-05-19T10:31:57.672Z,996.71
2019-05-19T10:32:58.794Z,996.75
2019-05-19T10:33:58.574Z,996.75
2019-05-19T10:34:57.624Z,996.71
2019-05-19T10:35:57.612Z,996.74
2019-05-19T10:36:57.632Z,996.71
2019-05-19T10:37:57.610Z,996.65
2019-05-19T10:38:57.579Z,996.65
2019-05-19T10:39:57.569Z,996.65
2019-05-19T10:40:57.558Z,996.62
2019-05-19T10:41:57.564Z,996.65
2019-05-19T10:42:57.534Z,996.61
2019-05-19T10:44:00.576Z,996.63
2019-05-19T10:44:57.515Z,996.61
2019-05-19T10:45:57.506Z,996.62
2019-05-19T10:46:57.518Z,996.60
2019-05-19T10:47:57.480Z,996.62
2019-05-19T10:48:57.470Z,996.63
2019-05-19T10:49:57.463Z,996.64
2019-05-19T10:50:57.455Z,996.64
2019-05-19T10:51:57.459Z,996.62
2019-05-19T10:52:57.428Z,996.57
2019-05-19T10:53:57.417Z,996.61
2019-05-19T10:54:57.407Z,996.58
2019-05-19T10:55:57.396Z,996.62
2019-05-19T10:56:57.401Z,996.60
2019-05-19T10:57:57.373Z,996.64
2019-05-19T10:58:57.372Z,996.64
2019-05-19T10:59:57.353Z,996.60
2019-05-19T11:00:57.386Z,996.62
2019-05-19T11:01:57.355Z,996.64
2019-05-19T11:02:57.322Z,996.64
2019-05-19T11:03:57.440Z,996.61
2019-05-19T11:04:57.359Z,996.62
2019-05-19T11:05:57.289Z,996.67
2019-05-19T11:06:57.294Z,996.66
2019-05-19T11:07:57.305Z,996.59
2019-05-19T11:08:57.264Z,996.65
2019-05-19T11:09:57.264Z,996.64
2019-05-19T11:10:57.233Z,996.66
2019-05-19T11:11:57.251Z,996.60
2019-05-19T11:12:57.222Z,996.64
2019-05-19T11:13:57.202Z,996.63
2019-05-19T11:14:57.198Z,996.63
2019-05-19T11:15:57.217Z,996.63
2019-05-19T11:16:57.315Z,996.56
2019-05-19T11:17:57.161Z,996.58
2019-05-19T11:18:57.185Z,996.62
2019-05-19T11:19:57.140Z,996.60
2019-05-19T11:20:57.226Z,996.55
2019-05-19T11:21:57.143Z,996.55
2019-05-19T11:22:57.116Z,996.55
2019-05-19T11:23:57.103Z,996.55
2019-05-19T11:24:57.118Z,996.57
2019-05-19T11:25:57.080Z,996.52
2019-05-19T11:26:57.082Z,996.54
2019-05-19T11:27:57.057Z,996.57
2019-05-19T11:28:57.045Z,996.57
2019-05-19T11:29:57.034Z,996.57
2019-05-19T11:30:57.032Z,996.57
2019-05-19T11:31:57.033Z,996.60
2019-05-19T11:32:57.005Z,996.50
2019-05-19T11:33:56.992Z,996.51
2019-05-19T11:34:56.992Z,996.50
2019-05-19T11:35:56.970Z,996.52
2019-05-19T11:36:56.975Z,996.53
2019-05-19T11:37:56.947Z,996.55
2019-05-19T11:38:56.942Z,996.51
2019-05-19T11:39:56.927Z,996.50
2019-05-19T11:40:56.919Z,996.51
2019-05-19T11:41:56.934Z,996.52
2019-05-19T11:42:56.899Z,996.53
2019-05-19T11:43:56.886Z,996.51
2019-05-19T11:44:56.880Z,996.51
2019-05-19T11:45:56.867Z,996.51
2019-05-19T11:46:56.870Z,996.52
2019-05-19T11:47:56.842Z,996.47
2019-05-19T11:48:56.842Z,996.46
2019-05-19T11:49:56.820Z,996.48
2019-05-19T11:50:56.814Z,996.52
2019-05-19T11:51:56.820Z,996.49
2019-05-19T11:52:56.797Z,996.46
2019-05-19T11:53:56.777Z,996.44
2019-05-19T11:54:56.766Z,996.44
2019-05-19T11:56:06.088Z,996.45
2019-05-19T11:56:56.809Z,996.44
2019-05-19T11:57:56.785Z,996.47
2019-05-19T11:58:56.729Z,996.49
2019-05-19T11:59:56.714Z,996.46
2019-05-19T12:00:56.864Z,996.44
2019-05-19T12:01:56.723Z,996.42
2019-05-19T12:02:56.690Z,996.42
2019-05-19T12:03:56.673Z,996.41
2019-05-19T12:04:56.680Z,996.41
2019-05-19T12:05:56.703Z,996.46
2019-05-19T12:06:56.785Z,996.42
2019-05-19T12:07:56.650Z,996.52
2019-05-19T12:08:56.624Z,996.47
2019-05-19T12:09:56.607Z,996.49
2019-05-19T12:10:56.602Z,996.45
2019-05-19T12:11:58.042Z,996.47
2019-05-19T12:12:56.593Z,996.44
2019-05-19T12:13:56.568Z,996.43
2019-05-19T12:14:56.563Z,996.38
2019-05-19T12:15:56.543Z,996.44
2019-05-19T12:16:56.555Z,996.41
2019-05-19T12:17:56.540Z,996.42
2019-05-19T12:18:57.582Z,996.39
2019-05-19T12:19:56.505Z,996.38
2019-05-19T12:20:57.007Z,996.35
2019-05-19T12:21:56.481Z,996.37
2019-05-19T12:22:56.585Z,996.36
2019-05-19T12:23:56.466Z,996.29
2019-05-19T12:24:56.448Z,996.32
2019-05-19T12:25:56.438Z,996.31
2019-05-19T12:26:56.430Z,996.29
2019-05-19T12:27:56.435Z,996.31